KPUC/PUC METAR and TAF weather

Enter ICAO airport designator
Station Type Date Time Source
KPUC METAR 2019/12/14 19:37 UTC NOAA

KPUC 141937Z AUTO 29011G16KT 10SM SCT021 BKN028 BKN041 03/00 A2975 RMK AO2 T00330000


Station Type Date Time Source
KPUC Decoded METAR 2019/12/14 19:37 UTC NOAA

PRICE CARBON COUNTY AIRPORT, UT, United States (KPUC) 39-37N 110-45W 2091M
Dec 14, 2019 - 02:37 PM EST / 2019.12.14 1937 UTC
Wind: from the WNW (290 degrees) at 13 MPH (11 KT) gusting to 18 MPH (16 KT):0
Visibility: 10 mile(s):0
Sky conditions: mostly cloudy
Temperature: 37.9 F (3.3 C)
Dew Point: 32.0 F (0.0 C)
Relative Humidity: 78%
Pressure (altimeter): 29.75 in. Hg (1007 hPa)
ob: KPUC 141937Z AUTO 29011G16KT 10SM SCT021 BKN028 BKN041 03/00 A2975 RMK AO2 T00330000
cycle: 19

Station Type Date Time Source
KPUC TAF UTC NOAA

Error!

Example: see airport list